createdAt,value
2022-09-23T00:01:10.803Z,9.57
2022-09-23T00:03:16.436Z,9.55
2022-09-23T00:05:21.328Z,9.56
2022-09-23T00:07:26.041Z,9.56
2022-09-23T00:14:17.803Z,9.53
2022-09-23T00:16:26.106Z,9.51
2022-09-23T00:18:30.949Z,9.47
2022-09-23T00:20:36.243Z,9.47
2022-09-23T00:22:41.572Z,9.49
2022-09-23T00:24:46.084Z,9.46
2022-09-23T00:26:51.085Z,9.45
2022-09-23T00:28:55.893Z,9.47
2022-09-23T00:31:05.113Z,9.46
2022-09-23T00:33:09.888Z,9.43
2022-09-23T00:35:14.671Z,9.47
2022-09-23T00:37:19.592Z,9.47
2022-09-23T00:39:24.353Z,9.49
2022-09-23T00:41:29.869Z,9.52
2022-09-23T00:43:43.238Z,9.50
2022-09-23T00:45:51.190Z,9.46
2022-09-23T00:48:02.493Z,9.44
2022-09-23T00:50:12.690Z,9.40
2022-09-23T00:52:21.081Z,9.36
2022-09-23T00:54:29.063Z,9.37
2022-09-23T00:56:35.702Z,9.35
2022-09-23T00:58:43.847Z,9.32
2022-09-23T01:00:49.523Z,9.28
2022-09-23T01:02:54.403Z,9.23
2022-09-23T01:05:09.771Z,9.18
2022-09-23T01:07:14.623Z,9.12
2022-09-23T01:09:19.676Z,9.09
2022-09-23T01:11:36.976Z,9.05
2022-09-23T01:13:52.515Z,9.02
2022-09-23T01:16:08.666Z,9.02
2022-09-23T01:18:25.336Z,9.03
2022-09-23T01:20:50.980Z,9.01
2022-09-23T01:23:05.180Z,8.87
2022-09-23T01:25:40.870Z,8.76
2022-09-23T01:28:02.049Z,8.69
2022-09-23T01:30:28.159Z,8.64
2022-09-23T01:32:45.506Z,8.59
2022-09-23T01:35:00.131Z,8.59
2022-09-23T01:37:12.476Z,8.64
2022-09-23T01:39:24.984Z,8.67
2022-09-23T01:41:44.019Z,8.69
2022-09-23T01:43:57.343Z,8.68
2022-09-23T01:46:06.575Z,8.68
2022-09-23T01:48:20.635Z,8.70
2022-09-23T01:50:42.299Z,8.69
2022-09-23T01:52:50.024Z,8.68
2022-09-23T01:55:00.696Z,8.64
2022-09-23T01:57:10.532Z,8.61
2022-09-23T01:59:21.331Z,8.58
2022-09-23T02:01:34.144Z,8.59
2022-09-23T02:03:47.102Z,8.56
2022-09-23T02:05:57.035Z,8.57
2022-09-23T02:08:06.421Z,8.57
2022-09-23T02:10:16.051Z,8.58
2022-09-23T02:12:24.596Z,8.59
2022-09-23T02:14:34.916Z,8.60
2022-09-23T02:16:44.220Z,8.61
2022-09-23T02:18:56.037Z,8.61
2022-09-23T02:21:05.617Z,8.59
2022-09-23T02:23:14.314Z,8.55
2022-09-23T02:25:19.891Z,8.52
2022-09-23T02:27:32.550Z,8.51
2022-09-23T02:29:49.051Z,8.49
2022-09-23T02:32:01.612Z,8.44
2022-09-23T02:34:19.811Z,8.42
2022-09-23T02:36:29.733Z,8.41
2022-09-23T02:38:41.101Z,8.42
2022-09-23T02:40:55.530Z,8.38
2022-09-23T02:43:08.821Z,8.32
2022-09-23T02:45:13.662Z,8.28
2022-09-23T02:47:21.946Z,8.28
2022-09-23T02:49:31.256Z,8.24
2022-09-23T02:51:38.261Z,8.22
2022-09-23T02:53:43.426Z,8.21
2022-09-23T02:55:48.315Z,8.16
2022-09-23T02:57:53.514Z,8.12
2022-09-23T02:59:58.680Z,8.07
2022-09-23T03:02:18.421Z,8.12
2022-09-23T03:04:38.520Z,8.10
2022-09-23T03:06:55.104Z,8.09
2022-09-23T03:09:04.391Z,8.05
2022-09-23T03:11:11.388Z,8.04
2022-09-23T03:13:26.106Z,8.09
2022-09-23T03:15:40.517Z,8.11
2022-09-23T03:17:53.752Z,8.10
2022-09-23T03:20:05.765Z,8.09
2022-09-23T03:22:13.213Z,8.10
2022-09-23T03:24:18.844Z,8.11
2022-09-23T03:26:31.142Z,8.11
2022-09-23T03:28:39.346Z,8.11
2022-09-23T03:30:45.460Z,8.12
2022-09-23T03:32:51.269Z,8.09
2022-09-23T03:34:59.358Z,8.11
2022-09-23T03:37:14.179Z,8.12
2022-09-23T03:39:30.338Z,8.09
2022-09-23T03:41:40.600Z,8.07
2022-09-23T03:43:47.803Z,8.01
2022-09-23T03:45:57.784Z,7.99
2022-09-23T03:48:03.299Z,7.99
2022-09-23T03:50:09.285Z,7.99
2022-09-23T03:52:16.705Z,8.01
2022-09-23T03:54:22.107Z,7.99
2022-09-23T03:56:27.012Z,7.98
2022-09-23T03:58:31.773Z,7.98
2022-09-23T04:00:37.151Z,8.00
2022-09-23T04:02:41.901Z,7.97
2022-09-23T04:04:46.734Z,7.95
2022-09-23T04:06:51.897Z,7.96
2022-09-23T04:08:58.994Z,7.96
2022-09-23T04:11:04.764Z,7.97
2022-09-23T04:13:09.585Z,8.03
2022-09-23T04:15:14.558Z,8.04
2022-09-23T04:17:19.665Z,8.06
2022-09-23T04:19:24.508Z,8.07
2022-09-23T04:21:30.297Z,8.08
2022-09-23T04:23:35.040Z,8.09
2022-09-23T04:25:50.173Z,8.11
2022-09-23T04:27:54.918Z,8.12
2022-09-23T04:29:59.753Z,8.11
2022-09-23T04:32:04.938Z,8.12
2022-09-23T04:34:09.456Z,8.08
2022-09-23T04:36:14.224Z,8.08
2022-09-23T04:38:18.976Z,8.09
2022-09-23T04:40:23.748Z,8.08
2022-09-23T04:42:33.786Z,8.08
2022-09-23T04:44:39.030Z,8.05
2022-09-23T04:46:45.390Z,7.97
2022-09-23T04:48:50.032Z,7.90
2022-09-23T04:50:54.871Z,7.82
2022-09-23T04:52:59.580Z,7.84
2022-09-23T04:55:06.943Z,7.81
2022-09-23T04:57:15.186Z,7.78
2022-09-23T04:59:25.059Z,7.75
2022-09-23T05:01:31.526Z,7.76
2022-09-23T05:03:37.104Z,7.80
2022-09-23T05:05:41.988Z,7.84
2022-09-23T05:07:46.823Z,7.85
2022-09-23T05:09:51.713Z,7.87
2022-09-23T05:11:56.791Z,7.87
2022-09-23T05:14:03.601Z,7.82
2022-09-23T05:16:13.982Z,7.84
2022-09-23T05:18:20.868Z,7.85
2022-09-23T05:20:25.778Z,7.83
2022-09-23T05:22:32.243Z,7.86
2022-09-23T05:24:37.222Z,7.83
2022-09-23T05:26:42.820Z,7.80
2022-09-23T05:28:47.585Z,7.78
2022-09-23T05:30:52.352Z,7.78
2022-09-23T05:32:59.674Z,7.75
2022-09-23T05:35:04.640Z,7.76
2022-09-23T05:37:09.440Z,7.78
2022-09-23T05:39:16.946Z,7.81
2022-09-23T05:41:23.452Z,7.83
2022-09-23T05:43:28.909Z,7.79
2022-09-23T05:45:33.769Z,7.81
2022-09-23T05:47:38.550Z,7.84
2022-09-23T05:49:59.041Z,7.84
2022-09-23T05:52:08.211Z,7.86
2022-09-23T05:54:13.014Z,7.90
2022-09-23T05:56:19.769Z,7.93
2022-09-23T05:58:24.617Z,7.87
2022-09-23T06:00:29.359Z,7.91
2022-09-23T06:02:34.384Z,7.94
2022-09-23T06:04:39.921Z,7.97
2022-09-23T06:06:47.396Z,8.03
2022-09-23T06:08:52.222Z,8.05
2022-09-23T06:10:56.978Z,8.12
2022-09-23T06:13:01.687Z,8.14
2022-09-23T06:15:07.631Z,8.14
2022-09-23T06:17:12.380Z,8.14
2022-09-23T06:19:17.182Z,8.16
2022-09-23T06:21:22.009Z,8.18
2022-09-23T06:23:29.413Z,8.22
2022-09-23T06:25:35.055Z,8.26
2022-09-23T06:27:39.797Z,8.27
2022-09-23T06:29:44.552Z,8.33
2022-09-23T06:31:52.880Z,8.42
2022-09-23T06:34:08.421Z,8.51
2022-09-23T06:36:32.866Z,8.58
2022-09-23T06:38:49.309Z,8.65
2022-09-23T06:40:54.683Z,8.65
2022-09-23T06:43:03.431Z,8.65
2022-09-23T06:45:13.125Z,8.69
2022-09-23T06:47:17.911Z,8.75
2022-09-23T06:49:26.659Z,8.85
2022-09-23T06:51:31.402Z,8.92
2022-09-23T06:53:39.518Z,8.99
2022-09-23T06:55:47.137Z,9.04
2022-09-23T06:57:51.988Z,9.11
2022-09-23T06:59:58.534Z,9.13
2022-09-23T07:02:03.499Z,9.18
2022-09-23T07:04:08.695Z,9.20
2022-09-23T07:06:14.412Z,9.22
2022-09-23T07:08:19.275Z,9.29
2022-09-23T07:10:24.163Z,9.35
2022-09-23T07:12:31.565Z,9.42
2022-09-23T07:14:36.338Z,9.51
2022-09-23T07:16:41.858Z,9.58
2022-09-23T07:18:47.140Z,9.62
2022-09-23T07:20:52.018Z,9.70
2022-09-23T07:22:56.994Z,9.78
2022-09-23T07:25:01.781Z,9.88
2022-09-23T07:27:06.864Z,9.97
2022-09-23T07:29:17.476Z,10.05
2022-09-23T07:31:35.266Z,10.14
2022-09-23T07:33:44.452Z,10.22
2022-09-23T07:35:49.467Z,10.32
2022-09-23T07:37:54.295Z,10.35
2022-09-23T07:39:59.140Z,10.40
2022-09-23T07:42:05.308Z,10.54
2022-09-23T07:44:11.155Z,10.61
2022-09-23T07:46:20.546Z,10.65
2022-09-23T07:48:25.363Z,10.72
2022-09-23T07:50:32.002Z,10.80
2022-09-23T07:52:39.104Z,10.92
2022-09-23T07:54:43.843Z,11.07
2022-09-23T07:56:49.405Z,11.23
2022-09-23T07:59:03.933Z,11.37
2022-09-23T08:01:13.078Z,11.51
2022-09-23T08:03:20.617Z,11.67
2022-09-23T08:05:25.537Z,11.83
2022-09-23T08:07:30.290Z,11.95
2022-09-23T08:09:39.439Z,12.24
2022-09-23T08:11:44.542Z,12.86
2022-09-23T08:13:49.052Z,13.48
2022-09-23T08:15:55.683Z,14.06
2022-09-23T08:18:02.921Z,14.44
2022-09-23T08:20:31.707Z,14.66
2022-09-23T08:22:36.462Z,14.83
2022-09-23T08:24:41.303Z,14.77
2022-09-23T08:26:47.079Z,14.92
2022-09-23T08:28:53.935Z,14.92
2022-09-23T08:30:58.742Z,14.82
2022-09-23T08:33:03.763Z,14.65
2022-09-23T08:35:11.940Z,14.58
2022-09-23T08:37:16.658Z,14.33
2022-09-23T08:39:25.621Z,14.20
2022-09-23T08:41:40.177Z,14.13
2022-09-23T08:43:51.314Z,14.02
2022-09-23T08:45:58.783Z,14.00
2022-09-23T08:48:12.943Z,13.97
2022-09-23T08:50:23.568Z,13.93
2022-09-23T08:52:50.595Z,13.92
2022-09-23T08:54:55.701Z,13.88
2022-09-23T08:57:05.015Z,13.87
2022-09-23T08:59:16.167Z,13.93
2022-09-23T09:01:26.830Z,14.01
2022-09-23T09:03:38.426Z,14.07
2022-09-23T09:05:53.984Z,14.12
2022-09-23T09:08:03.151Z,14.18
2022-09-23T09:10:13.834Z,14.23
2022-09-23T09:12:21.881Z,14.21
2022-09-23T09:14:29.625Z,14.22
2022-09-23T09:17:06.221Z,14.31
2022-09-23T09:19:20.141Z,14.36
2022-09-23T09:21:32.543Z,14.39
2022-09-23T09:23:43.550Z,14.49
2022-09-23T09:25:52.190Z,14.57
2022-09-23T09:27:58.654Z,14.64
2022-09-23T09:30:04.071Z,14.73
2022-09-23T09:32:19.644Z,14.84
2022-09-23T09:34:36.801Z,14.94
2022-09-23T09:36:50.537Z,15.00
2022-09-23T09:38:58.624Z,15.09
2022-09-23T09:41:12.168Z,15.18
2022-09-23T09:43:23.648Z,15.30
2022-09-23T09:45:57.720Z,15.33
2022-09-23T09:48:10.922Z,15.41
2022-09-23T09:50:21.747Z,15.50
2022-09-23T09:52:30.377Z,15.56
2022-09-23T09:54:35.042Z,15.57
2022-09-23T09:56:40.035Z,15.66
2022-09-23T09:58:49.453Z,15.69
2022-09-23T10:00:55.489Z,15.75
2022-09-23T10:03:04.204Z,15.67
2022-09-23T10:05:25.781Z,15.73
2022-09-23T10:07:34.874Z,15.80
2022-09-23T10:09:43.229Z,15.84
2022-09-23T10:12:07.570Z,15.94
2022-09-23T10:14:19.805Z,16.01
2022-09-23T10:16:24.626Z,16.06
2022-09-23T10:18:33.631Z,16.10
2022-09-23T10:20:39.578Z,16.11
2022-09-23T10:22:47.163Z,16.16
2022-09-23T10:24:55.210Z,16.28
2022-09-23T10:27:04.404Z,16.37
2022-09-23T10:29:26.025Z,16.39
2022-09-23T10:31:32.350Z,16.43
2022-09-23T10:33:42.466Z,16.50
2022-09-23T10:35:57.349Z,16.48
2022-09-23T10:38:04.753Z,16.54
2022-09-23T10:40:51.175Z,16.59
2022-09-23T10:43:26.368Z,16.63
2022-09-23T10:45:49.018Z,16.73
2022-09-23T10:48:03.507Z,16.86
2022-09-23T10:50:23.251Z,16.96
2022-09-23T10:52:48.238Z,17.07
2022-09-23T10:55:10.240Z,17.14
2022-09-23T10:57:43.494Z,17.19
2022-09-23T11:00:01.292Z,17.24
2022-09-23T11:02:20.637Z,17.31
2022-09-23T11:04:51.622Z,17.41
2022-09-23T11:07:14.402Z,17.43
2022-09-23T11:09:32.161Z,17.54
2022-09-23T11:11:51.498Z,17.71
2022-09-23T11:14:25.434Z,17.75
2022-09-23T11:16:43.292Z,17.84
2022-09-23T11:19:02.208Z,17.91
2022-09-23T11:21:22.649Z,17.99
2022-09-23T11:24:01.965Z,18.09
2022-09-23T11:26:17.578Z,18.18
2022-09-23T11:28:55.161Z,18.26
2022-09-23T11:31:10.692Z,18.31
2022-09-23T11:33:41.988Z,18.31
2022-09-23T11:35:50.530Z,18.31
2022-09-23T11:38:03.495Z,18.34
2022-09-23T11:40:19.127Z,18.31
2022-09-23T11:42:28.014Z,18.26
2022-09-23T11:44:41.196Z,18.25
2022-09-23T11:46:52.916Z,18.29
2022-09-23T11:49:01.907Z,18.28
2022-09-23T11:51:14.848Z,18.29
2022-09-23T11:53:26.312Z,18.32
2022-09-23T11:55:36.427Z,18.31
2022-09-23T11:57:49.361Z,18.22
2022-09-23T12:00:02.862Z,18.20
2022-09-23T12:02:22.883Z,18.18
2022-09-23T12:04:34.876Z,18.22
2022-09-23T12:06:44.822Z,18.23
2022-09-23T12:08:53.316Z,18.25
2022-09-23T12:11:06.607Z,18.13
2022-09-23T12:13:20.262Z,18.02
2022-09-23T12:15:41.375Z,17.90
2022-09-23T12:18:18.442Z,17.87
2022-09-23T12:20:40.754Z,17.90
2022-09-23T12:22:58.416Z,17.95
2022-09-23T12:25:18.472Z,17.96
2022-09-23T12:27:33.194Z,17.94
2022-09-23T12:29:39.473Z,17.97
2022-09-23T12:31:48.298Z,18.01
2022-09-23T12:33:54.957Z,18.08
2022-09-23T12:36:06.533Z,18.14
2022-09-23T12:38:22.414Z,18.16
2022-09-23T12:40:33.428Z,18.14
2022-09-23T12:42:44.260Z,18.15
2022-09-23T12:44:51.112Z,18.18
2022-09-23T12:47:29.017Z,18.20
2022-09-23T12:49:41.780Z,18.23
2022-09-23T12:52:16.773Z,18.18
2022-09-23T12:54:27.189Z,18.12
2022-09-23T12:57:02.447Z,18.05
2022-09-23T12:59:23.644Z,18.04
2022-09-23T13:01:29.380Z,17.97
2022-09-23T13:03:46.706Z,17.94
2022-09-23T13:06:08.376Z,17.90
2022-09-23T13:08:18.817Z,17.93
2022-09-23T13:10:33.594Z,17.96
2022-09-23T13:12:42.059Z,17.96
2022-09-23T13:14:49.988Z,17.92
2022-09-23T13:16:56.250Z,17.73
2022-09-23T13:19:02.620Z,17.73
2022-09-23T13:21:20.154Z,17.76
2022-09-23T13:23:27.430Z,17.73
2022-09-23T13:25:35.135Z,17.71
2022-09-23T13:27:40.693Z,17.72
2022-09-23T13:29:49.267Z,17.71
2022-09-23T13:31:58.018Z,17.71
2022-09-23T13:34:07.249Z,17.69
2022-09-23T13:36:18.165Z,17.73
2022-09-23T13:38:26.263Z,17.79
2022-09-23T13:40:32.457Z,17.79
2022-09-23T13:42:42.037Z,17.85
2022-09-23T13:44:46.849Z,17.93
2022-09-23T13:46:54.615Z,17.99
2022-09-23T13:48:59.881Z,17.95
2022-09-23T13:51:12.550Z,17.93
2022-09-23T13:53:30.802Z,17.97
2022-09-23T13:55:37.566Z,18.02
2022-09-23T13:57:42.428Z,18.10
2022-09-23T13:59:50.416Z,18.16
2022-09-23T14:02:05.855Z,18.20
2022-09-23T14:04:26.477Z,18.30
2022-09-23T14:06:33.534Z,18.36
2022-09-23T14:08:41.644Z,18.32
2022-09-23T14:10:49.231Z,18.36
2022-09-23T14:13:00.456Z,18.43
2022-09-23T14:15:07.331Z,18.49
2022-09-23T14:17:16.947Z,18.61
2022-09-23T14:19:30.912Z,18.73
2022-09-23T14:21:39.404Z,18.83
2022-09-23T14:23:50.095Z,18.94
2022-09-23T14:25:59.016Z,19.00
2022-09-23T14:28:08.822Z,19.03
2022-09-23T14:30:19.754Z,19.03
2022-09-23T14:32:28.381Z,19.07
2022-09-23T14:34:48.523Z,19.08
2022-09-23T14:37:05.905Z,19.12
2022-09-23T14:39:15.362Z,19.16
2022-09-23T14:41:26.587Z,19.08
2022-09-23T14:43:31.780Z,19.09
2022-09-23T14:45:37.384Z,19.09
2022-09-23T14:47:47.903Z,19.17
2022-09-23T14:50:06.116Z,19.19
2022-09-23T14:52:11.040Z,19.13
2022-09-23T14:54:38.320Z,19.07
2022-09-23T14:56:47.384Z,19.00
2022-09-23T14:58:55.452Z,18.95
2022-09-23T15:01:05.388Z,18.92
2022-09-23T15:03:20.506Z,18.82
2022-09-23T15:05:33.008Z,18.73
2022-09-23T15:07:40.474Z,18.71
2022-09-23T15:09:48.461Z,18.68
2022-09-23T15:12:02.501Z,18.58
2022-09-23T15:14:36.823Z,18.50
2022-09-23T15:16:44.048Z,18.40
2022-09-23T15:18:57.378Z,18.39
2022-09-23T15:21:11.344Z,18.39
2022-09-23T15:23:38.386Z,18.32
2022-09-23T15:25:45.735Z,18.25
2022-09-23T15:28:21.621Z,18.16
2022-09-23T15:30:28.814Z,18.07
2022-09-23T15:32:33.575Z,18.08
2022-09-23T15:34:39.332Z,18.07
2022-09-23T15:36:48.453Z,18.07
2022-09-23T15:38:55.178Z,17.98
2022-09-23T15:41:03.109Z,17.92
2022-09-23T15:43:21.925Z,17.92
2022-09-23T15:45:36.703Z,17.93
2022-09-23T15:47:44.214Z,17.93
2022-09-23T15:49:49.939Z,17.94
2022-09-23T15:52:00.176Z,17.94
2022-09-23T15:54:13.908Z,17.94
2022-09-23T15:56:21.299Z,17.89
2022-09-23T15:58:26.345Z,17.85
2022-09-23T16:00:32.487Z,17.81
2022-09-23T16:02:37.243Z,17.83
2022-09-23T16:04:42.113Z,17.87
2022-09-23T16:06:52.848Z,17.90
2022-09-23T16:08:58.351Z,17.92
2022-09-23T16:11:04.279Z,17.90
2022-09-23T16:13:16.855Z,17.87
2022-09-23T16:15:25.004Z,17.86
2022-09-23T16:17:32.671Z,17.80
2022-09-23T16:19:39.810Z,17.76
2022-09-23T16:21:47.752Z,17.76
2022-09-23T16:23:54.606Z,17.76
2022-09-23T16:26:01.223Z,17.75
2022-09-23T16:28:07.351Z,17.76
2022-09-23T16:30:15.456Z,17.74
2022-09-23T16:32:22.377Z,17.70
2022-09-23T16:34:29.883Z,17.65
2022-09-23T16:36:44.854Z,17.64
2022-09-23T16:38:52.369Z,17.59
2022-09-23T16:41:00.942Z,17.55
2022-09-23T16:43:13.640Z,17.49
2022-09-23T16:45:24.204Z,17.44
2022-09-23T16:47:29.048Z,17.39
2022-09-23T16:49:36.081Z,17.35
2022-09-23T16:51:44.515Z,17.32
2022-09-23T16:53:51.192Z,17.30
2022-09-23T16:55:59.874Z,17.27
2022-09-23T16:58:09.754Z,17.23
2022-09-23T17:00:30.194Z,17.17
2022-09-23T17:02:53.028Z,17.09
2022-09-23T17:05:01.567Z,17.02
2022-09-23T17:07:13.590Z,16.96
2022-09-23T17:09:20.173Z,16.90
2022-09-23T17:11:25.533Z,16.82
2022-09-23T17:13:34.810Z,16.75
2022-09-23T17:15:40.032Z,16.68
2022-09-23T17:17:47.085Z,16.57
2022-09-23T17:19:51.877Z,16.50
2022-09-23T17:21:56.971Z,16.45
2022-09-23T17:24:01.999Z,16.38
2022-09-23T17:26:09.854Z,16.31
2022-09-23T17:28:15.076Z,16.23
2022-09-23T17:30:19.996Z,16.18
2022-09-23T17:32:24.800Z,16.12
2022-09-23T17:34:33.538Z,16.07
2022-09-23T17:36:39.722Z,16.01
2022-09-23T17:38:57.544Z,15.96
2022-09-23T17:41:04.949Z,15.92
2022-09-23T17:43:11.268Z,15.87
2022-09-23T17:45:18.598Z,15.80
2022-09-23T17:47:41.433Z,15.72
2022-09-23T17:49:49.992Z,15.68
2022-09-23T17:51:55.883Z,15.63
2022-09-23T17:54:05.623Z,15.57
2022-09-23T17:56:15.044Z,15.54
2022-09-23T17:58:19.944Z,15.47
2022-09-23T18:00:24.785Z,15.44
2022-09-23T18:02:29.641Z,15.39
2022-09-23T18:04:37.181Z,15.37
2022-09-23T18:06:44.651Z,15.37
2022-09-23T18:08:54.585Z,15.36
2022-09-23T18:10:59.309Z,15.35
2022-09-23T18:13:04.162Z,15.33
2022-09-23T18:15:09.394Z,15.32
2022-09-23T18:17:16.328Z,15.25
2022-09-23T18:19:23.089Z,15.23
2022-09-23T18:21:29.351Z,15.22
2022-09-23T18:23:36.682Z,15.18
2022-09-23T18:25:41.484Z,15.13
2022-09-23T18:27:46.201Z,15.09
2022-09-23T18:29:50.998Z,15.06
2022-09-23T18:31:56.103Z,15.02
2022-09-23T18:34:01.075Z,14.97
2022-09-23T18:36:06.474Z,14.93
2022-09-23T18:38:11.251Z,14.90
2022-09-23T18:40:18.943Z,14.87
2022-09-23T18:42:23.784Z,14.85
2022-09-23T18:44:28.554Z,14.85
2022-09-23T18:46:34.018Z,14.84
2022-09-23T18:48:51.213Z,14.81
2022-09-23T18:50:53.886Z,14.78
2022-09-23T18:53:01.561Z,14.76
2022-09-23T18:55:06.991Z,14.73
2022-09-23T18:57:15.249Z,14.68
2022-09-23T18:59:23.870Z,14.64
2022-09-23T19:01:29.213Z,14.63
2022-09-23T19:03:34.150Z,14.63
2022-09-23T19:05:38.898Z,14.60
2022-09-23T19:07:43.703Z,14.56
2022-09-23T19:09:48.447Z,14.55
2022-09-23T19:11:53.853Z,14.55
2022-09-23T19:14:03.304Z,14.56
2022-09-23T19:16:10.729Z,14.53
2022-09-23T19:18:15.504Z,14.50
2022-09-23T19:20:20.884Z,14.45
2022-09-23T19:22:25.661Z,14.42
2022-09-23T19:24:30.437Z,14.37
2022-09-23T19:26:41.052Z,14.33
2022-09-23T19:28:51.510Z,14.30
2022-09-23T19:30:59.152Z,14.26
2022-09-23T19:33:04.202Z,14.21
2022-09-23T19:35:10.503Z,14.17
2022-09-23T19:37:16.629Z,14.15
2022-09-23T19:39:26.328Z,14.14
2022-09-23T19:41:32.400Z,14.08
2022-09-23T19:43:38.532Z,14.02
2022-09-23T19:45:44.491Z,14.02
2022-09-23T19:47:56.506Z,14.01
2022-09-23T19:50:01.334Z,13.99
2022-09-23T19:52:06.106Z,14.00
2022-09-23T19:54:12.018Z,13.99
2022-09-23T19:56:20.069Z,13.96
2022-09-23T19:58:25.683Z,13.99
2022-09-23T20:00:30.815Z,13.97
2022-09-23T20:02:36.369Z,14.00
2022-09-23T20:04:43.683Z,14.02
2022-09-23T20:06:49.694Z,14.06
2022-09-23T20:08:57.505Z,14.08
2022-09-23T20:11:03.613Z,14.10
2022-09-23T20:13:08.426Z,14.14
2022-09-23T20:15:14.467Z,14.17
2022-09-23T20:17:20.074Z,14.16
2022-09-23T20:19:25.096Z,14.18
2022-09-23T20:21:33.737Z,14.18
2022-09-23T20:23:38.751Z,14.17
2022-09-23T20:25:55.886Z,14.13
2022-09-23T20:28:00.640Z,14.13
2022-09-23T20:30:05.515Z,14.10
2022-09-23T20:32:11.442Z,14.11
2022-09-23T20:34:16.253Z,14.11
2022-09-23T20:36:24.590Z,14.04
2022-09-23T20:38:32.177Z,14.02
2022-09-23T20:40:38.598Z,13.96
2022-09-23T20:42:43.431Z,13.96
2022-09-23T20:44:49.177Z,13.96
2022-09-23T20:46:54.040Z,13.99
2022-09-23T20:48:59.035Z,13.98
2022-09-23T20:51:04.123Z,14.01
2022-09-23T20:53:09.157Z,14.02
2022-09-23T20:55:18.457Z,14.00
2022-09-23T20:57:23.274Z,13.96
2022-09-23T20:59:28.031Z,13.91
2022-09-23T21:01:36.581Z,13.87
2022-09-23T21:03:43.834Z,13.85
2022-09-23T21:05:49.897Z,13.82
2022-09-23T21:07:54.643Z,13.79
2022-09-23T21:10:01.979Z,13.78
2022-09-23T21:12:09.539Z,13.80
2022-09-23T21:14:14.585Z,13.78
2022-09-23T21:16:21.461Z,13.74
2022-09-23T21:18:26.372Z,13.70
2022-09-23T21:20:31.933Z,13.69
2022-09-23T21:22:36.849Z,13.68
2022-09-23T21:27:09.473Z,13.64
2022-09-23T21:29:14.452Z,13.65
2022-09-23T21:31:25.838Z,13.69
2022-09-23T21:33:31.431Z,13.68
2022-09-23T21:35:36.225Z,13.71
2022-09-23T21:37:40.926Z,13.73
2022-09-23T21:40:06.670Z,13.76
2022-09-23T21:42:14.047Z,13.68
2022-09-23T21:44:18.850Z,13.68
2022-09-23T21:46:24.128Z,13.59
2022-09-23T21:48:33.382Z,13.55
2022-09-23T21:50:40.872Z,13.51
2022-09-23T21:52:46.464Z,13.50
2022-09-23T21:54:51.189Z,13.52
2022-09-23T21:56:56.051Z,13.51
2022-09-23T21:59:04.049Z,13.54
2022-09-23T22:01:12.837Z,13.52
2022-09-23T22:03:17.712Z,13.51
2022-09-23T22:05:23.848Z,13.51
2022-09-23T22:07:28.635Z,13.53
2022-09-23T22:09:33.453Z,13.54
2022-09-23T22:11:52.175Z,13.57
2022-09-23T22:13:56.920Z,13.56
2022-09-23T22:16:07.514Z,13.52
2022-09-23T22:18:12.369Z,13.50
2022-09-23T22:20:17.253Z,13.47
2022-09-23T22:22:22.441Z,13.47
2022-09-23T22:24:27.221Z,13.45
2022-09-23T22:26:34.211Z,13.46
2022-09-23T22:28:51.395Z,13.49
2022-09-23T22:31:08.634Z,13.48
2022-09-23T22:33:17.790Z,13.48
2022-09-23T22:35:23.027Z,13.45
2022-09-23T22:37:28.846Z,13.34
2022-09-23T22:39:34.140Z,13.32
2022-09-23T22:41:39.494Z,13.36
2022-09-23T22:43:44.315Z,13.39
2022-09-23T22:45:52.493Z,13.44
2022-09-23T22:47:57.413Z,13.41
2022-09-23T22:50:04.753Z,13.40
2022-09-23T22:52:11.456Z,13.38
2022-09-23T22:54:16.273Z,13.36
2022-09-23T22:56:22.104Z,13.35
2022-09-23T22:58:32.534Z,13.30
2022-09-23T23:00:38.676Z,13.25
2022-09-23T23:02:43.447Z,13.25
2022-09-23T23:04:50.857Z,13.24
2022-09-23T23:06:58.617Z,13.23
2022-09-23T23:09:03.689Z,13.18
2022-09-23T23:11:10.191Z,13.13
2022-09-23T23:13:16.430Z,13.10
2022-09-23T23:15:21.257Z,13.05
2022-09-23T23:17:26.044Z,13.02
2022-09-23T23:19:30.818Z,12.96
2022-09-23T23:21:36.638Z,12.91
2022-09-23T23:23:46.215Z,12.93
2022-09-23T23:25:51.045Z,12.93
2022-09-23T23:27:56.102Z,12.92
2022-09-23T23:30:00.854Z,12.88
2022-09-23T23:32:06.071Z,12.88
2022-09-23T23:34:13.346Z,12.81
2022-09-23T23:36:20.307Z,12.80
2022-09-23T23:38:25.146Z,12.78
2022-09-23T23:40:32.630Z,12.78
2022-09-23T23:42:37.431Z,12.77
2022-09-23T23:44:42.163Z,12.76
2022-09-23T23:46:47.054Z,12.76
2022-09-23T23:48:52.171Z,12.76
2022-09-23T23:50:57.114Z,12.79
2022-09-23T23:53:02.018Z,12.81
2022-09-23T23:55:07.463Z,12.82
2022-09-23T23:57:14.777Z,12.84
2022-09-23T23:59:20.205Z,12.83
